createdAt,value
2018-12-22T00:01:33.679Z,1.09
2018-12-22T00:06:39.885Z,0.94
2018-12-22T00:11:46.028Z,0.68
2018-12-22T00:16:52.195Z,0.91
2018-12-22T00:21:58.323Z,1.22
2018-12-22T00:27:04.494Z,0.82
2018-12-22T00:32:10.633Z,0.76
2018-12-22T00:37:17.067Z,1.00
2018-12-22T00:42:23.196Z,0.89
2018-12-22T00:47:29.367Z,0.97
2018-12-22T00:52:35.500Z,0.76
2018-12-22T00:57:41.669Z,0.85
2018-12-22T01:02:47.791Z,0.68
2018-12-22T01:07:53.982Z,0.75
2018-12-22T01:13:00.114Z,0.83
2018-12-22T01:18:06.287Z,1.19
2018-12-22T01:23:12.446Z,1.00
2018-12-22T01:28:18.622Z,0.87
2018-12-22T01:33:24.762Z,1.16
2018-12-22T01:38:30.926Z,0.77
2018-12-22T01:43:37.046Z,0.75
2018-12-22T01:48:43.257Z,1.02
2018-12-22T01:53:49.407Z,0.79
2018-12-22T01:58:55.567Z,1.13
2018-12-22T02:04:01.704Z,0.97
2018-12-22T02:09:07.969Z,1.12
2018-12-22T02:14:14.094Z,0.86
2018-12-22T02:19:20.443Z,0.91
2018-12-22T02:24:26.595Z,1.00
2018-12-22T02:29:32.779Z,1.01
2018-12-22T02:34:38.918Z,0.98
2018-12-22T02:39:45.119Z,0.75
2018-12-22T02:44:51.247Z,0.74
2018-12-22T02:49:57.415Z,0.66
2018-12-22T02:55:03.651Z,0.93
2018-12-22T03:00:09.824Z,0.97
2018-12-22T03:05:15.969Z,0.84
2018-12-22T03:10:22.154Z,1.05
2018-12-22T03:15:28.289Z,0.90
2018-12-22T03:20:34.433Z,0.75
2018-12-22T03:25:40.566Z,0.97
2018-12-22T03:30:46.741Z,0.54
2018-12-22T03:35:52.877Z,0.51
2018-12-22T03:40:59.079Z,0.95
2018-12-22T03:46:05.246Z,1.04
2018-12-22T03:51:11.439Z,0.89
2018-12-22T03:56:17.628Z,0.76
2018-12-22T04:01:23.786Z,0.80
2018-12-22T04:06:30.053Z,0.67
2018-12-22T04:11:36.177Z,0.96
2018-12-22T04:16:42.335Z,0.82
2018-12-22T04:21:48.492Z,0.70
2018-12-22T04:26:54.659Z,0.74
2018-12-22T04:32:00.959Z,1.20
2018-12-22T04:37:07.171Z,0.70
2018-12-22T04:42:13.298Z,1.11
2018-12-22T04:47:19.635Z,0.68
2018-12-22T04:52:25.794Z,0.92
2018-12-22T04:57:32.005Z,0.69
2018-12-22T05:02:38.138Z,1.03
2018-12-22T05:07:44.468Z,0.45
2018-12-22T05:12:50.595Z,0.68
2018-12-22T05:17:56.783Z,0.87
2018-12-22T05:23:02.923Z,0.97
2018-12-22T05:28:09.108Z,1.06
2018-12-22T05:33:15.279Z,0.65
2018-12-22T05:38:21.412Z,0.98
2018-12-22T05:43:27.602Z,1.27
2018-12-22T05:48:33.738Z,1.09
2018-12-22T05:53:39.906Z,0.83
2018-12-22T05:58:46.073Z,1.19
2018-12-22T06:03:52.256Z,1.27
2018-12-22T06:08:58.406Z,0.84
2018-12-22T06:14:04.572Z,0.91
2018-12-22T06:19:10.726Z,1.03
2018-12-22T06:24:16.912Z,0.87
2018-12-22T06:29:23.038Z,1.13
2018-12-22T06:34:29.567Z,0.68
2018-12-22T06:39:35.835Z,0.90
2018-12-22T06:44:42.015Z,0.88
2018-12-22T06:49:48.170Z,0.54
2018-12-22T06:54:54.415Z,0.96
2018-12-22T07:00:00.606Z,0.73
2018-12-22T07:05:06.786Z,1.04
2018-12-22T07:10:12.925Z,0.66
2018-12-22T07:15:19.210Z,0.79
2018-12-22T07:20:25.366Z,1.02
2018-12-22T07:25:31.675Z,0.57
2018-12-22T07:30:37.842Z,0.81
2018-12-22T07:35:44.139Z,1.17
2018-12-22T07:40:50.293Z,1.10
2018-12-22T07:45:56.454Z,0.83
2018-12-22T07:51:02.675Z,0.62
2018-12-22T07:56:09.141Z,0.82
2018-12-22T08:01:15.218Z,1.51
2018-12-22T08:06:21.426Z,1.15
2018-12-22T08:11:28.177Z,1.41
2018-12-22T08:16:34.785Z,1.40
2018-12-22T08:21:41.158Z,0.83
2018-12-22T08:26:47.498Z,1.05
2018-12-22T08:31:53.664Z,1.29
2018-12-22T08:36:59.879Z,0.71
2018-12-22T08:42:06.034Z,0.63
2018-12-22T08:47:12.422Z,0.56
2018-12-22T08:52:18.669Z,0.77
2018-12-22T08:57:24.983Z,0.64
2018-12-22T09:02:31.187Z,0.96
2018-12-22T09:07:37.654Z,0.66
2018-12-22T09:12:43.942Z,0.97
2018-12-22T09:17:50.077Z,0.82
2018-12-22T09:22:57.385Z,1.10
2018-12-22T09:28:03.503Z,0.53
2018-12-22T09:33:09.744Z,0.74
2018-12-22T09:38:15.974Z,1.02
2018-12-22T09:43:22.159Z,0.92
2018-12-22T09:48:28.348Z,0.82
2018-12-22T09:53:34.561Z,0.75
2018-12-22T09:58:40.722Z,0.71
2018-12-22T10:03:46.993Z,0.45
2018-12-22T10:08:56.755Z,0.96
2018-12-22T10:14:03.030Z,0.49
2018-12-22T10:19:09.195Z,0.95
2018-12-22T10:24:15.335Z,0.83
2018-12-22T10:29:21.865Z,0.50
2018-12-22T10:34:28.071Z,0.73
2018-12-22T10:39:34.238Z,0.52
2018-12-22T10:44:40.370Z,0.72
2018-12-22T10:49:46.608Z,0.64
2018-12-22T10:54:52.760Z,0.68
2018-12-22T10:59:58.947Z,0.56
2018-12-22T11:05:07.274Z,0.73
2018-12-22T11:10:13.203Z,0.64
2018-12-22T11:15:19.391Z,0.49
2018-12-22T11:20:25.531Z,0.76
2018-12-22T11:25:31.719Z,0.69
2018-12-22T11:30:37.877Z,0.64
2018-12-22T11:35:44.110Z,0.71
2018-12-22T11:40:50.350Z,0.63
2018-12-22T11:45:56.741Z,0.38
2018-12-22T11:51:02.897Z,0.65
2018-12-22T11:56:09.110Z,0.41
2018-12-22T12:01:15.262Z,0.37
2018-12-22T12:06:21.600Z,1.09
2018-12-22T12:11:27.889Z,0.44
2018-12-22T12:16:34.340Z,0.32
2018-12-22T12:21:40.535Z,0.44
2018-12-22T12:26:46.852Z,0.41
2018-12-22T12:31:53.013Z,0.39
2018-12-22T12:36:59.323Z,0.29
2018-12-22T12:42:05.488Z,0.39
2018-12-22T12:47:11.774Z,0.25
2018-12-22T12:52:17.963Z,0.38
2018-12-22T12:57:24.156Z,0.43
2018-12-22T13:02:30.415Z,0.43
2018-12-22T13:07:36.588Z,0.29
2018-12-22T13:12:42.794Z,0.60
2018-12-22T13:17:48.959Z,0.36
2018-12-22T13:22:55.176Z,0.65
2018-12-22T13:28:01.299Z,0.52
2018-12-22T13:33:07.814Z,1.17
2018-12-22T13:38:13.815Z,0.85
2018-12-22T13:43:19.992Z,1.33
2018-12-22T13:48:26.161Z,1.13
2018-12-22T13:53:32.411Z,0.69
2018-12-22T13:58:38.715Z,0.87
2018-12-22T14:03:44.859Z,0.44
2018-12-22T14:08:51.056Z,0.39
2018-12-22T14:13:57.545Z,0.51
2018-12-22T14:19:03.754Z,0.35
2018-12-22T14:24:09.915Z,0.22
2018-12-22T14:29:16.062Z,0.33
2018-12-22T14:34:22.254Z,0.22
2018-12-22T14:39:28.431Z,0.36
2018-12-22T14:44:34.594Z,0.31
2018-12-22T14:49:40.823Z,0.47
2018-12-22T14:54:48.272Z,0.24
2018-12-22T14:59:54.740Z,0.30
2018-12-22T15:05:01.364Z,0.30
2018-12-22T15:10:07.871Z,0.20
2018-12-22T15:15:14.752Z,0.41
2018-12-22T15:20:21.903Z,0.48
2018-12-22T15:25:28.658Z,0.39
2018-12-22T15:30:36.048Z,0.29
2018-12-22T15:35:42.332Z,0.27
2018-12-22T15:40:48.495Z,0.47
2018-12-22T15:45:54.802Z,0.25
2018-12-22T15:51:01.243Z,0.35
2018-12-22T15:56:07.377Z,0.34
2018-12-22T16:01:13.586Z,0.36
2018-12-22T16:06:19.755Z,0.23
2018-12-22T16:11:26.156Z,0.21
2018-12-22T16:16:32.821Z,0.27
2018-12-22T16:21:38.934Z,0.34
2018-12-22T16:26:45.344Z,0.19
2018-12-22T16:31:51.731Z,0.31
2018-12-22T16:36:58.432Z,0.15
2018-12-22T16:42:04.662Z,0.30
2018-12-22T16:47:10.870Z,0.25
2018-12-22T16:52:17.258Z,0.27
2018-12-22T16:57:23.440Z,0.34
2018-12-22T17:02:29.627Z,0.25
2018-12-22T17:07:35.941Z,0.25
2018-12-22T17:12:42.291Z,0.39
2018-12-22T17:17:48.466Z,0.19
2018-12-22T17:22:54.640Z,0.18
2018-12-22T17:28:00.782Z,0.50
2018-12-22T17:33:06.978Z,0.58
2018-12-22T17:38:13.137Z,0.74
2018-12-22T17:43:19.435Z,0.97
2018-12-22T17:48:25.630Z,0.76
2018-12-22T17:53:31.959Z,0.76
2018-12-22T17:58:38.148Z,0.52
2018-12-22T18:03:44.483Z,0.54
2018-12-22T18:08:50.682Z,0.61
2018-12-22T18:13:56.870Z,0.51
2018-12-22T18:19:02.994Z,0.42
2018-12-22T18:24:09.311Z,0.35
2018-12-22T18:29:15.461Z,0.45
2018-12-22T18:34:21.622Z,0.60
2018-12-22T18:39:27.786Z,0.60
2018-12-22T18:44:34.023Z,0.54
2018-12-22T18:49:40.186Z,0.22
2018-12-22T18:54:46.400Z,0.28
2018-12-22T18:59:52.606Z,0.41
2018-12-22T19:04:58.974Z,0.57
2018-12-22T19:10:05.195Z,0.55
2018-12-22T19:15:11.365Z,0.57
2018-12-22T19:20:17.648Z,0.55
2018-12-22T19:25:23.930Z,0.50
2018-12-22T19:30:30.134Z,0.51
2018-12-22T19:35:36.315Z,0.46
2018-12-22T19:40:42.468Z,0.47
2018-12-22T19:45:48.828Z,0.62
2018-12-22T19:50:54.971Z,0.68
2018-12-22T19:56:01.213Z,0.79
2018-12-22T20:01:07.719Z,0.63
2018-12-22T20:06:14.055Z,0.76
2018-12-22T20:11:20.238Z,0.49
2018-12-22T20:16:26.518Z,0.46
2018-12-22T20:21:32.660Z,0.30
2018-12-22T20:26:38.871Z,0.35
2018-12-22T20:31:45.006Z,0.36
2018-12-22T20:36:51.736Z,0.41
2018-12-22T20:41:57.884Z,0.55
2018-12-22T20:47:04.150Z,0.36
2018-12-22T20:52:10.298Z,0.44
2018-12-22T20:57:16.680Z,0.41
2018-12-22T21:02:27.042Z,0.33
2018-12-22T21:07:22.967Z,0.30
2018-12-22T21:12:29.310Z,0.61
2018-12-22T21:17:35.466Z,0.61
2018-12-22T21:22:41.627Z,0.39
2018-12-22T21:27:47.792Z,0.43
2018-12-22T21:32:53.963Z,0.47
2018-12-22T21:38:00.096Z,0.41
2018-12-22T21:43:06.311Z,0.64
2018-12-22T21:48:12.463Z,0.40
2018-12-22T21:53:18.631Z,0.41
2018-12-22T21:58:24.782Z,0.41
2018-12-22T22:03:30.974Z,0.67
2018-12-22T22:08:37.233Z,0.48
2018-12-22T22:13:43.411Z,0.32
2018-12-22T22:18:49.588Z,0.36
2018-12-22T22:23:55.723Z,0.30
2018-12-22T22:29:01.902Z,0.50
2018-12-22T22:34:08.210Z,0.62
2018-12-22T22:39:14.424Z,0.27
2018-12-22T22:44:20.551Z,0.28
2018-12-22T22:49:26.752Z,0.31
2018-12-22T22:54:33.014Z,0.26
2018-12-22T22:59:39.155Z,0.46
2018-12-22T23:04:45.338Z,0.46
2018-12-22T23:09:51.474Z,0.64
2018-12-22T23:14:57.657Z,0.46
2018-12-22T23:20:03.790Z,0.31
2018-12-22T23:25:10.091Z,0.47
2018-12-22T23:30:16.231Z,0.23
2018-12-22T23:35:22.411Z,0.31
2018-12-22T23:40:28.550Z,0.62
2018-12-22T23:45:34.727Z,0.56
2018-12-22T23:50:40.911Z,0.35
2018-12-22T23:55:47.056Z,0.29
